createdAt,value
2023-04-12T00:00:04.686Z,11.60
2023-04-12T00:01:04.674Z,11.51
2023-04-12T00:02:04.754Z,11.46
2023-04-12T00:03:04.718Z,11.48
2023-04-12T00:04:04.849Z,11.59
2023-04-12T00:05:04.661Z,11.46
2023-04-12T00:06:04.609Z,11.60
2023-04-12T00:07:04.599Z,11.60
2023-04-12T00:08:04.586Z,11.64
2023-04-12T00:09:04.575Z,11.67
2023-04-12T00:10:04.560Z,11.57
2023-04-12T00:11:04.544Z,11.51
2023-04-12T00:12:04.568Z,11.45
2023-04-12T00:13:04.524Z,11.46
2023-04-12T00:14:04.533Z,11.45
2023-04-12T00:15:06.181Z,11.45
2023-04-12T00:16:04.541Z,11.46
2023-04-12T00:17:04.466Z,11.49
2023-04-12T00:18:04.469Z,11.39
2023-04-12T00:19:04.442Z,11.30
2023-04-12T00:20:04.438Z,11.26
2023-04-12T00:21:04.419Z,11.24
2023-04-12T00:22:04.403Z,11.24
2023-04-12T00:23:04.393Z,11.19
2023-04-12T00:24:04.380Z,11.13
2023-04-12T00:25:04.377Z,11.19
2023-04-12T00:26:04.363Z,11.24
2023-04-12T00:27:04.347Z,11.24
2023-04-12T00:28:04.406Z,11.16
2023-04-12T00:29:04.317Z,11.38
2023-04-12T00:30:04.298Z,11.38
2023-04-12T00:31:04.324Z,11.35
2023-04-12T00:32:04.276Z,11.35
2023-04-12T00:33:04.325Z,11.41
2023-04-12T00:34:04.255Z,11.51
2023-04-12T00:35:04.234Z,11.49
2023-04-12T00:36:04.246Z,11.49
2023-04-12T00:37:04.210Z,11.44
2023-04-12T00:38:04.202Z,11.41
2023-04-12T00:39:04.179Z,11.26
2023-04-12T00:40:04.174Z,11.38
2023-04-12T00:41:04.156Z,11.38
2023-04-12T00:42:04.166Z,11.30
2023-04-12T00:43:04.128Z,11.20
2023-04-12T00:44:04.132Z,11.21
2023-04-12T00:45:04.101Z,11.17
2023-04-12T00:46:04.087Z,11.08
2023-04-12T00:47:04.113Z,11.06
2023-04-12T00:48:04.103Z,11.03
2023-04-12T00:49:04.057Z,11.11
2023-04-12T00:50:04.036Z,11.12
2023-04-12T00:51:04.024Z,11.24
2023-04-12T00:52:04.014Z,11.23
2023-04-12T00:53:03.997Z,11.21
2023-04-12T00:54:03.981Z,11.23
2023-04-12T00:55:03.974Z,11.21
2023-04-12T00:56:03.953Z,11.21
2023-04-12T00:57:03.965Z,11.13
2023-04-12T00:58:03.929Z,11.19
2023-04-12T00:59:03.919Z,11.11
2023-04-12T01:00:03.922Z,11.23
2023-04-12T01:01:04.002Z,11.12
2023-04-12T01:02:03.941Z,11.05
2023-04-12T01:03:04.066Z,11.01
2023-04-12T01:04:03.894Z,10.98
2023-04-12T01:05:03.842Z,10.94
2023-04-12T01:06:03.824Z,10.83
2023-04-12T01:07:03.821Z,10.86
2023-04-12T01:08:03.792Z,10.84
2023-04-12T01:09:03.785Z,10.99
2023-04-12T01:10:03.784Z,10.95
2023-04-12T01:11:03.753Z,10.98
2023-04-12T01:12:03.739Z,11.01
2023-04-12T01:13:03.726Z,10.99
2023-04-12T01:14:03.716Z,10.95
2023-04-12T01:15:03.711Z,10.93
2023-04-12T01:16:03.723Z,10.99
2023-04-12T01:17:03.672Z,10.99
2023-04-12T01:18:03.781Z,10.99
2023-04-12T01:19:03.648Z,10.93
2023-04-12T01:20:04.712Z,10.87
2023-04-12T01:21:03.618Z,10.83
2023-04-12T01:22:03.614Z,10.84
2023-04-12T01:23:03.596Z,10.91
2023-04-12T01:24:03.611Z,10.86
2023-04-12T01:25:03.564Z,10.84
2023-04-12T01:26:03.581Z,10.83
2023-04-12T01:27:03.551Z,10.90
2023-04-12T01:28:03.527Z,10.95
2023-04-12T01:29:03.524Z,10.81
2023-04-12T01:30:03.497Z,10.78
2023-04-12T01:31:03.496Z,10.78
2023-04-12T01:32:03.544Z,10.78
2023-04-12T01:33:03.555Z,10.75
2023-04-12T01:34:03.519Z,10.80
2023-04-12T01:35:03.431Z,10.69
2023-04-12T01:36:04.571Z,10.62
2023-04-12T01:37:03.450Z,10.60
2023-04-12T01:38:03.398Z,10.72
2023-04-12T01:39:03.386Z,10.69
2023-04-12T01:40:03.371Z,10.69
2023-04-12T01:41:03.356Z,10.60
2023-04-12T01:42:03.357Z,10.60
2023-04-12T01:43:03.326Z,10.62
2023-04-12T01:44:03.316Z,10.72
2023-04-12T01:45:03.302Z,10.58
2023-04-12T01:46:03.310Z,10.51
2023-04-12T01:47:03.277Z,10.60
2023-04-12T01:48:03.318Z,10.65
2023-04-12T01:49:03.249Z,10.63
2023-04-12T01:50:03.234Z,10.58
2023-04-12T01:51:03.237Z,10.52
2023-04-12T01:52:03.209Z,10.62
2023-04-12T01:53:03.201Z,10.66
2023-04-12T01:54:03.181Z,10.68
2023-04-12T01:55:03.167Z,10.63
2023-04-12T01:56:03.166Z,10.51
2023-04-12T01:57:03.153Z,10.54
2023-04-12T01:58:03.144Z,10.55
2023-04-12T01:59:03.115Z,10.47
2023-04-12T02:00:03.102Z,10.39
2023-04-12T02:01:03.118Z,10.54
2023-04-12T02:02:03.176Z,10.65
2023-04-12T02:03:03.250Z,10.70
2023-04-12T02:04:03.184Z,10.73
2023-04-12T02:05:03.036Z,10.70
2023-04-12T02:06:03.025Z,10.68
2023-04-12T02:07:03.008Z,10.57
2023-04-12T02:08:03.014Z,10.68
2023-04-12T02:09:02.989Z,10.55
2023-04-12T02:10:02.972Z,10.49
2023-04-12T02:11:02.956Z,10.49
2023-04-12T02:12:02.941Z,10.62
2023-04-12T02:13:02.928Z,10.57
2023-04-12T02:14:02.910Z,10.58
2023-04-12T02:15:02.904Z,10.55
2023-04-12T02:16:02.906Z,10.46
2023-04-12T02:17:02.914Z,10.44
2023-04-12T02:18:02.874Z,10.38
2023-04-12T02:19:02.846Z,10.42
2023-04-12T02:20:02.851Z,10.42
2023-04-12T02:21:02.820Z,10.34
2023-04-12T02:22:02.813Z,10.26
2023-04-12T02:23:02.790Z,10.35
2023-04-12T02:24:02.789Z,10.26
2023-04-12T02:25:02.802Z,10.38
2023-04-12T02:26:02.779Z,10.42
2023-04-12T02:27:02.744Z,10.38
2023-04-12T02:28:02.726Z,10.38
2023-04-12T02:29:02.710Z,10.38
2023-04-12T02:30:02.720Z,10.49
2023-04-12T02:31:02.714Z,10.57
2023-04-12T02:32:02.678Z,10.35
2023-04-12T02:33:02.734Z,10.38
2023-04-12T02:34:02.661Z,10.42
2023-04-12T02:35:02.633Z,10.51
2023-04-12T02:36:02.753Z,10.46
2023-04-12T02:37:02.611Z,10.54
2023-04-12T02:38:02.589Z,10.51
2023-04-12T02:39:02.583Z,10.68
2023-04-12T02:40:02.681Z,10.66
2023-04-12T02:41:02.555Z,10.69
2023-04-12T02:42:02.553Z,10.69
2023-04-12T02:43:02.525Z,10.54
2023-04-12T02:44:02.513Z,10.62
2023-04-12T02:45:02.502Z,10.58
2023-04-12T02:46:02.570Z,10.46
2023-04-12T02:47:02.469Z,10.49
2023-04-12T02:48:02.549Z,10.43
2023-04-12T02:49:02.457Z,10.36
2023-04-12T02:50:02.450Z,10.42
2023-04-12T02:51:02.416Z,10.29
2023-04-12T02:52:02.489Z,10.25
2023-04-12T02:53:02.386Z,10.28
2023-04-12T02:54:02.378Z,10.31
2023-04-12T02:55:02.402Z,10.25
2023-04-12T02:56:02.697Z,10.31
2023-04-12T02:57:02.360Z,10.29
2023-04-12T02:58:02.358Z,10.28
2023-04-12T02:59:02.308Z,10.39
2023-04-12T03:00:02.295Z,10.25
2023-04-12T03:01:02.303Z,10.26
2023-04-12T03:02:02.397Z,10.26
2023-04-12T03:03:02.435Z,10.26
2023-04-12T03:04:02.454Z,10.34
2023-04-12T03:05:02.236Z,10.28
2023-04-12T03:06:02.249Z,10.36
2023-04-12T03:07:02.219Z,10.55
2023-04-12T03:08:02.201Z,10.42
2023-04-12T03:09:02.177Z,10.36
2023-04-12T03:10:02.162Z,10.46
2023-04-12T03:11:02.145Z,10.38
2023-04-12T03:12:02.141Z,10.42
2023-04-12T03:13:02.120Z,10.32
2023-04-12T03:14:02.113Z,10.32
2023-04-12T03:15:02.091Z,10.29
2023-04-12T03:16:02.091Z,10.31
2023-04-12T03:17:02.093Z,10.36
2023-04-12T03:18:02.100Z,10.43
2023-04-12T03:19:02.056Z,10.39
2023-04-12T03:20:02.028Z,10.38
2023-04-12T03:21:02.013Z,10.39
2023-04-12T03:22:01.999Z,10.39
2023-04-12T03:23:01.992Z,10.38
2023-04-12T03:24:01.993Z,10.38
2023-04-12T03:25:01.955Z,10.47
2023-04-12T03:26:01.948Z,10.70
2023-04-12T03:27:01.936Z,10.75
2023-04-12T03:28:01.932Z,10.75
2023-04-12T03:29:01.902Z,10.81
2023-04-12T03:30:01.888Z,10.80
2023-04-12T03:31:01.949Z,10.78
2023-04-12T03:32:01.880Z,10.80
2023-04-12T03:33:01.902Z,10.70
2023-04-12T03:34:01.839Z,10.68
2023-04-12T03:35:01.820Z,10.57
2023-04-12T03:36:01.875Z,10.63
2023-04-12T03:37:01.845Z,10.52
2023-04-12T03:38:01.782Z,10.51
2023-04-12T03:39:01.766Z,10.52
2023-04-12T03:40:01.776Z,10.44
2023-04-12T03:41:01.736Z,10.51
2023-04-12T03:42:01.723Z,10.44
2023-04-12T03:43:02.200Z,10.54
2023-04-12T03:44:01.696Z,10.43
2023-04-12T03:45:01.685Z,10.43
2023-04-12T03:46:01.719Z,10.49
2023-04-12T03:47:01.669Z,10.52
2023-04-12T03:48:01.703Z,10.42
2023-04-12T03:49:01.631Z,10.44
2023-04-12T03:51:01.611Z,10.55
2023-04-12T03:52:01.589Z,10.51
2023-04-12T03:53:01.575Z,10.62
2023-04-12T03:54:01.563Z,10.58
2023-04-12T03:55:01.557Z,10.49
2023-04-12T03:56:01.557Z,10.69
2023-04-12T03:57:01.522Z,10.60
2023-04-12T03:58:01.508Z,10.72
2023-04-12T03:59:01.502Z,10.84
2023-04-12T04:00:01.552Z,10.86
2023-04-12T04:01:01.471Z,10.87
2023-04-12T04:02:01.470Z,10.76
2023-04-12T04:03:01.565Z,10.84
2023-04-12T04:04:02.156Z,10.88
2023-04-12T04:05:01.439Z,10.99
2023-04-12T04:06:01.410Z,10.90
2023-04-12T04:07:01.389Z,10.90
2023-04-12T04:08:01.378Z,10.84
2023-04-12T04:09:01.368Z,10.68
2023-04-12T04:10:01.349Z,10.66
2023-04-12T04:11:01.331Z,10.62
2023-04-12T04:12:01.337Z,10.49
2023-04-12T04:13:01.305Z,10.51
2023-04-12T04:14:01.290Z,10.52
2023-04-12T04:15:01.279Z,10.55
2023-04-12T04:16:01.293Z,10.54
2023-04-12T04:17:01.254Z,10.47
2023-04-12T04:18:01.275Z,10.55
2023-04-12T04:19:01.230Z,10.51
2023-04-12T04:20:01.211Z,10.54
2023-04-12T04:21:01.199Z,10.51
2023-04-12T04:22:01.183Z,10.54
2023-04-12T04:23:01.169Z,10.49
2023-04-12T04:24:01.197Z,10.42
2023-04-12T04:25:01.145Z,10.42
2023-04-12T04:26:01.129Z,10.43
2023-04-12T04:27:01.121Z,10.43
2023-04-12T04:28:01.195Z,10.43
2023-04-12T04:29:01.090Z,10.55
2023-04-12T04:30:01.081Z,10.54
2023-04-12T04:31:01.092Z,10.60
2023-04-12T04:32:01.131Z,10.60
2023-04-12T04:33:01.200Z,10.49
2023-04-12T04:34:01.026Z,10.63
2023-04-12T04:35:01.013Z,10.54
2023-04-12T04:36:01.043Z,10.66
2023-04-12T04:37:00.983Z,10.52
2023-04-12T04:38:00.970Z,10.49
2023-04-12T04:39:00.958Z,10.46
2023-04-12T04:40:00.959Z,10.55
2023-04-12T04:41:00.936Z,10.57
2023-04-12T04:42:00.928Z,10.49
2023-04-12T04:43:00.940Z,10.55
2023-04-12T04:44:00.913Z,10.47
2023-04-12T04:45:00.891Z,10.43
2023-04-12T04:46:00.884Z,10.38
2023-04-12T04:47:00.885Z,10.46
2023-04-12T04:48:00.881Z,10.39
2023-04-12T04:49:00.821Z,10.43
2023-04-12T04:50:00.818Z,10.36
2023-04-12T04:51:00.797Z,10.35
2023-04-12T04:52:00.781Z,10.42
2023-04-12T04:53:00.768Z,10.44
2023-04-12T04:54:00.757Z,10.47
2023-04-12T04:55:00.750Z,10.39
2023-04-12T04:56:00.731Z,10.42
2023-04-12T04:57:00.713Z,10.38
2023-04-12T04:58:00.702Z,10.42
2023-04-12T04:59:00.812Z,10.38
2023-04-12T05:00:00.716Z,10.36
2023-04-12T05:01:00.668Z,10.42
2023-04-12T05:02:00.700Z,10.44
2023-04-12T05:03:00.674Z,10.38
2023-04-12T05:04:00.696Z,10.36
2023-04-12T05:05:00.602Z,10.42
2023-04-12T05:06:00.594Z,10.31
2023-04-12T05:07:00.578Z,10.34
2023-04-12T05:08:00.564Z,10.44
2023-04-12T05:09:00.564Z,10.39
2023-04-12T05:10:00.586Z,10.31
2023-04-12T05:11:00.520Z,10.31
2023-04-12T05:12:00.511Z,10.26
2023-04-12T05:13:00.497Z,10.29
2023-04-12T05:14:00.498Z,10.32
2023-04-12T05:15:11.224Z,10.32
2023-04-12T05:16:00.473Z,10.36
2023-04-12T05:17:00.594Z,10.42
2023-04-12T05:18:00.483Z,10.51
2023-04-12T05:19:00.421Z,10.54
2023-04-12T05:20:00.405Z,10.57
2023-04-12T05:21:00.384Z,10.55
2023-04-12T05:22:00.371Z,10.54
2023-04-12T05:23:00.357Z,10.54
2023-04-12T05:24:00.345Z,10.54
2023-04-12T05:25:00.333Z,10.52
2023-04-12T05:26:00.317Z,10.55
2023-04-12T05:27:00.312Z,10.55
2023-04-12T05:28:00.291Z,10.39
2023-04-12T05:29:00.280Z,10.49
2023-04-12T05:30:00.354Z,10.46
2023-04-12T05:31:00.304Z,10.43
2023-04-12T05:32:00.255Z,10.34
2023-04-12T05:33:00.281Z,10.43
2023-04-12T05:34:00.209Z,10.39
2023-04-12T05:35:00.193Z,10.42
2023-04-12T05:36:00.204Z,10.42
2023-04-12T05:37:00.168Z,10.39
2023-04-12T05:38:00.157Z,10.35
2023-04-12T05:39:00.147Z,10.52
2023-04-12T05:40:00.210Z,10.36
2023-04-12T05:41:00.132Z,10.39
2023-04-12T05:42:00.111Z,10.43
2023-04-12T05:43:00.121Z,10.36
2023-04-12T05:44:00.113Z,10.39
2023-04-12T05:45:00.091Z,10.46
2023-04-12T05:46:00.061Z,10.39
2023-04-12T05:47:00.044Z,10.42
2023-04-12T05:48:00.092Z,10.54
2023-04-12T05:49:00.008Z,10.49
2023-04-12T05:50:00.004Z,10.54
2023-04-12T05:50:59.992Z,10.49
2023-04-12T05:51:59.972Z,10.42
2023-04-12T05:52:59.952Z,10.38
2023-04-12T05:53:59.945Z,10.51
2023-04-12T05:54:59.934Z,10.55
2023-04-12T05:55:59.921Z,10.60
2023-04-12T05:56:59.902Z,10.54
2023-04-12T05:57:59.888Z,10.57
2023-04-12T05:58:59.876Z,10.63
2023-04-12T05:59:59.873Z,10.62
2023-04-12T06:00:59.848Z,10.65
2023-04-12T06:01:59.871Z,10.58
2023-04-12T06:02:59.913Z,10.57
2023-04-12T06:03:59.927Z,10.63
2023-04-12T06:04:59.906Z,10.69
2023-04-12T06:05:59.790Z,10.73
2023-04-12T06:06:59.770Z,10.69
2023-04-12T06:07:59.765Z,10.88
2023-04-12T06:08:59.743Z,10.84
2023-04-12T06:09:59.732Z,10.84
2023-04-12T06:10:59.717Z,10.81
2023-04-12T06:11:59.705Z,10.90
2023-04-12T06:12:59.690Z,10.95
2023-04-12T06:13:59.678Z,11.08
2023-04-12T06:14:59.668Z,11.08
2023-04-12T06:15:59.702Z,11.08
2023-04-12T06:16:59.641Z,11.19
2023-04-12T06:17:59.714Z,11.19
2023-04-12T06:18:59.911Z,11.27
2023-04-12T06:19:59.622Z,11.28
2023-04-12T06:20:59.583Z,11.30
2023-04-12T06:21:59.584Z,11.28
2023-04-12T06:22:59.557Z,11.33
2023-04-12T06:23:59.552Z,11.23
2023-04-12T06:24:59.536Z,11.39
2023-04-12T06:25:59.524Z,11.36
2023-04-12T06:26:59.506Z,11.27
2023-04-12T06:27:59.489Z,11.35
2023-04-12T06:28:59.477Z,11.21
2023-04-12T06:29:59.461Z,11.41
2023-04-12T06:30:59.477Z,11.38
2023-04-12T06:31:59.439Z,11.28
2023-04-12T06:32:59.447Z,11.28
2023-04-12T06:33:59.407Z,11.33
2023-04-12T06:34:59.391Z,11.21
2023-04-12T06:35:59.425Z,11.20
2023-04-12T06:36:59.365Z,11.26
2023-04-12T06:37:59.354Z,11.24
2023-04-12T06:38:59.433Z,11.28
2023-04-12T06:39:59.333Z,11.23
2023-04-12T06:40:59.308Z,11.23
2023-04-12T06:41:59.298Z,11.21
2023-04-12T06:42:59.284Z,11.24
2023-04-12T06:43:59.268Z,11.20
2023-04-12T06:44:59.256Z,11.35
2023-04-12T06:45:59.242Z,11.38
2023-04-12T06:46:59.238Z,11.46
2023-04-12T06:47:59.271Z,11.49
2023-04-12T06:48:59.483Z,11.64
2023-04-12T06:49:59.187Z,11.78
2023-04-12T06:50:59.179Z,11.87
2023-04-12T06:51:59.198Z,11.93
2023-04-12T06:52:59.145Z,11.87
2023-04-12T06:53:59.134Z,11.94
2023-04-12T06:54:59.131Z,11.90
2023-04-12T06:55:59.109Z,12.03
2023-04-12T06:56:59.092Z,12.11
2023-04-12T06:57:59.077Z,12.08
2023-04-12T06:58:59.377Z,12.00
2023-04-12T06:59:59.054Z,12.00
2023-04-12T07:00:59.110Z,12.13
2023-04-12T07:01:59.054Z,12.21
2023-04-12T07:02:59.172Z,12.37
2023-04-12T07:03:59.102Z,12.34
2023-04-12T07:04:58.994Z,12.43
2023-04-12T07:05:58.976Z,12.40
2023-04-12T07:06:58.970Z,12.46
2023-04-12T07:07:58.981Z,12.52
2023-04-12T07:08:59.333Z,12.49
2023-04-12T07:09:58.927Z,12.43
2023-04-12T07:11:03.869Z,12.49
2023-04-12T07:11:58.903Z,12.61
2023-04-12T07:12:58.889Z,12.49
2023-04-12T07:13:58.898Z,12.61
2023-04-12T07:14:58.869Z,12.61
2023-04-12T07:15:58.886Z,12.66
2023-04-12T07:16:58.985Z,12.62
2023-04-12T07:17:58.867Z,12.71
2023-04-12T07:18:59.059Z,12.69
2023-04-12T07:19:58.809Z,12.69
2023-04-12T07:20:58.802Z,12.74
2023-04-12T07:21:58.798Z,12.80
2023-04-12T07:22:58.767Z,12.74
2023-04-12T07:23:58.773Z,12.74
2023-04-12T07:24:58.749Z,12.81
2023-04-12T07:25:58.730Z,12.84
2023-04-12T07:26:58.720Z,12.96
2023-04-12T07:27:58.710Z,12.96
2023-04-12T07:28:58.964Z,13.10
2023-04-12T07:29:58.865Z,13.14
2023-04-12T07:30:58.667Z,13.24
2023-04-12T07:31:58.666Z,13.27
2023-04-12T07:33:08.708Z,13.36
2023-04-12T07:33:58.759Z,13.35
2023-04-12T07:34:58.632Z,13.43
2023-04-12T07:35:58.636Z,13.43
2023-04-12T07:36:58.596Z,13.51
2023-04-12T07:37:58.588Z,13.51
2023-04-12T07:38:58.719Z,13.55
2023-04-12T07:39:58.712Z,13.51
2023-04-12T07:40:58.572Z,13.46
2023-04-12T07:41:58.544Z,13.50
2023-04-12T07:42:58.526Z,13.39
2023-04-12T07:43:58.521Z,13.43
2023-04-12T07:44:58.501Z,13.38
2023-04-12T07:45:58.608Z,13.38
2023-04-12T07:46:58.481Z,13.39
2023-04-12T07:47:58.498Z,13.41
2023-04-12T07:48:58.766Z,13.39
2023-04-12T07:49:58.450Z,13.54
2023-04-12T07:50:58.434Z,13.59
2023-04-12T07:51:58.430Z,13.63
2023-04-12T07:52:58.412Z,13.66
2023-04-12T07:53:58.650Z,13.68
2023-04-12T07:54:58.387Z,13.66
2023-04-12T07:55:58.408Z,13.76
2023-04-12T07:56:58.364Z,13.76
2023-04-12T07:57:58.353Z,13.73
2023-04-12T07:58:58.568Z,13.76
2023-04-12T07:59:58.332Z,13.86
2023-04-12T08:01:00.947Z,13.84
2023-04-12T08:01:58.347Z,13.93
2023-04-12T08:02:58.422Z,13.90
2023-04-12T08:03:58.830Z,13.96
2023-04-12T08:04:58.273Z,13.96
2023-04-12T08:05:58.283Z,14.05
2023-04-12T08:06:58.250Z,14.01
2023-04-12T08:07:58.242Z,14.16
2023-04-12T08:08:58.249Z,14.23
2023-04-12T08:09:58.216Z,14.20
2023-04-12T08:10:58.207Z,14.30
2023-04-12T08:11:58.328Z,14.31
2023-04-12T08:12:58.185Z,14.31
2023-04-12T08:13:58.337Z,14.36
2023-04-12T08:14:58.162Z,14.20
2023-04-12T08:15:58.234Z,14.26
2023-04-12T08:16:58.179Z,14.21
2023-04-12T08:17:58.167Z,14.12
2023-04-12T08:18:58.116Z,14.08
2023-04-12T08:19:58.105Z,14.11
2023-04-12T08:20:58.092Z,14.05
2023-04-12T08:21:58.097Z,13.99
2023-04-12T08:22:58.095Z,14.08
2023-04-12T08:23:58.266Z,14.05
2023-04-12T08:24:58.056Z,14.21
2023-04-12T08:25:58.045Z,14.21
2023-04-12T08:26:58.050Z,14.30
2023-04-12T08:27:58.043Z,14.42
2023-04-12T08:28:58.020Z,14.56
2023-04-12T08:29:58.023Z,14.74
2023-04-12T08:30:58.058Z,14.91
2023-04-12T08:31:57.973Z,14.79
2023-04-12T08:32:58.022Z,14.90
2023-04-12T08:33:58.078Z,14.93
2023-04-12T08:34:57.942Z,15.03
2023-04-12T08:35:57.981Z,15.07
2023-04-12T08:36:57.919Z,14.94
2023-04-12T08:37:57.906Z,15.01
2023-04-12T08:38:57.898Z,15.15
2023-04-12T08:39:57.886Z,15.19
2023-04-12T08:40:57.891Z,15.34
2023-04-12T08:41:57.865Z,15.48
2023-04-12T08:42:57.857Z,15.48
2023-04-12T08:43:58.095Z,15.58
2023-04-12T08:44:57.842Z,15.64
2023-04-12T08:45:57.836Z,15.66
2023-04-12T08:46:57.910Z,15.84
2023-04-12T08:47:57.860Z,15.92
2023-04-12T08:48:57.802Z,15.96
2023-04-12T08:49:57.825Z,16.04
2023-04-12T08:50:57.776Z,16.13
2023-04-12T08:51:57.763Z,16.10
2023-04-12T08:52:57.753Z,16.10
2023-04-12T08:53:58.130Z,16.08
2023-04-12T08:54:57.735Z,16.26
2023-04-12T08:55:57.724Z,16.22
2023-04-12T08:56:57.714Z,16.26
2023-04-12T08:57:57.705Z,16.40
2023-04-12T08:58:57.693Z,16.40
2023-04-12T08:59:57.744Z,16.44
2023-04-12T09:00:57.683Z,16.57
2023-04-12T09:01:57.749Z,16.57
2023-04-12T09:02:57.922Z,16.62
2023-04-12T09:03:58.202Z,16.65
2023-04-12T09:04:57.721Z,16.55
2023-04-12T09:05:57.630Z,16.73
2023-04-12T09:06:57.627Z,16.91
2023-04-12T09:07:57.610Z,16.96
2023-04-12T09:08:57.594Z,17.05
2023-04-12T09:09:57.653Z,17.18
2023-04-12T09:10:57.583Z,17.18
2023-04-12T09:11:57.601Z,17.18
2023-04-12T09:12:57.593Z,17.30
2023-04-12T09:13:58.453Z,17.32
2023-04-12T09:14:57.547Z,17.28
2023-04-12T09:15:57.555Z,17.33
2023-04-12T09:16:57.625Z,17.38
2023-04-12T09:17:57.709Z,17.36
2023-04-12T09:18:57.770Z,17.30
2023-04-12T09:19:57.497Z,17.30
2023-04-12T09:20:57.488Z,17.25
2023-04-12T09:21:57.483Z,17.46
2023-04-12T09:22:57.467Z,17.36
2023-04-12T09:23:57.579Z,17.45
2023-04-12T09:24:57.450Z,17.70
2023-04-12T09:25:57.445Z,17.77
2023-04-12T09:26:57.438Z,17.68
2023-04-12T09:27:57.425Z,17.74
2023-04-12T09:28:57.443Z,17.80
2023-04-12T09:29:59.013Z,17.83
2023-04-12T09:30:57.493Z,17.76
2023-04-12T09:31:57.648Z,17.79
2023-04-12T09:32:57.403Z,17.81
2023-04-12T09:33:57.525Z,18.01
2023-04-12T09:34:57.366Z,17.98
2023-04-12T09:35:57.390Z,17.96
2023-04-12T09:36:57.360Z,17.99
2023-04-12T09:37:57.346Z,18.04
2023-04-12T09:38:57.333Z,17.98
2023-04-12T09:39:57.322Z,18.01
2023-04-12T09:40:57.316Z,18.11
2023-04-12T09:41:57.309Z,18.13
2023-04-12T09:42:57.303Z,18.23
2023-04-12T09:43:57.456Z,18.31
2023-04-12T09:44:57.305Z,18.29
2023-04-12T09:45:57.325Z,18.32
2023-04-12T09:46:57.340Z,18.36
2023-04-12T09:47:57.370Z,18.34
2023-04-12T09:48:57.256Z,18.44
2023-04-12T09:49:57.268Z,18.41
2023-04-12T09:50:57.238Z,18.49
2023-04-12T09:51:59.445Z,18.50
2023-04-12T09:52:57.241Z,18.50
2023-04-12T09:53:57.423Z,18.50
2023-04-12T09:54:57.203Z,18.51
2023-04-12T09:55:57.220Z,18.49
2023-04-12T09:56:57.203Z,18.62
2023-04-12T09:57:57.192Z,18.57
2023-04-12T09:58:57.380Z,18.51
2023-04-12T09:59:57.222Z,18.53
2023-04-12T10:00:57.187Z,18.41
2023-04-12T10:01:57.302Z,18.34
2023-04-12T10:02:57.718Z,18.38
2023-04-12T10:03:57.556Z,18.41
2023-04-12T10:04:57.392Z,18.51
2023-04-12T10:05:57.116Z,18.62
2023-04-12T10:06:57.131Z,18.49
2023-04-12T10:07:57.106Z,18.46
2023-04-12T10:08:57.231Z,18.49
2023-04-12T10:09:57.104Z,18.26
2023-04-12T10:10:57.076Z,18.02
2023-04-12T10:11:57.069Z,17.76
2023-04-12T10:12:57.072Z,17.47
2023-04-12T10:13:57.462Z,16.92
2023-04-12T10:14:57.045Z,16.80
2023-04-12T10:15:57.089Z,16.81
2023-04-12T10:16:57.026Z,16.57
2023-04-12T10:17:57.016Z,16.54
2023-04-12T10:18:57.301Z,16.55
2023-04-12T10:19:57.068Z,16.51
2023-04-12T10:20:56.998Z,15.89
2023-04-12T10:21:57.140Z,15.56
2023-04-12T10:22:56.992Z,15.58
2023-04-12T10:23:56.987Z,15.66
2023-04-12T10:24:56.956Z,15.60
2023-04-12T10:25:56.948Z,15.30
2023-04-12T10:26:56.939Z,15.28
2023-04-12T10:27:56.950Z,15.15
2023-04-12T10:28:57.227Z,15.33
2023-04-12T10:29:56.916Z,15.62
2023-04-12T10:30:56.937Z,15.66
2023-04-12T10:31:56.923Z,15.64
2023-04-12T10:32:56.908Z,15.76
2023-04-12T10:33:56.876Z,15.78
2023-04-12T10:34:56.872Z,15.66
2023-04-12T10:35:56.945Z,15.66
2023-04-12T10:36:56.934Z,15.40
2023-04-12T10:37:56.844Z,15.40
2023-04-12T10:38:57.055Z,15.35
2023-04-12T10:39:56.850Z,15.30
2023-04-12T10:40:56.813Z,15.19
2023-04-12T10:41:56.829Z,15.11
2023-04-12T10:42:56.795Z,14.94
2023-04-12T10:43:56.810Z,14.97
2023-04-12T10:44:58.744Z,14.93
2023-04-12T10:45:56.761Z,14.86
2023-04-12T10:46:56.768Z,15.00
2023-04-12T10:47:56.835Z,15.00
2023-04-12T10:48:56.934Z,15.07
2023-04-12T10:49:56.720Z,15.12
2023-04-12T10:50:56.736Z,15.04
2023-04-12T10:51:56.733Z,14.85
2023-04-12T10:52:56.721Z,14.82
2023-04-12T10:53:56.706Z,14.69
2023-04-12T10:54:56.670Z,14.75
2023-04-12T10:55:56.677Z,14.64
2023-04-12T10:56:56.683Z,14.63
2023-04-12T10:57:56.639Z,14.71
2023-04-12T10:58:57.220Z,14.67
2023-04-12T10:59:56.732Z,14.80
2023-04-12T11:00:56.858Z,14.85
2023-04-12T11:01:56.777Z,14.93
2023-04-12T11:02:56.917Z,15.00
2023-04-12T11:03:56.694Z,15.07
2023-04-12T11:04:56.618Z,15.15
2023-04-12T11:05:56.588Z,15.23
2023-04-12T11:06:58.535Z,15.22
2023-04-12T11:07:56.595Z,15.23
2023-04-12T11:08:56.956Z,15.35
2023-04-12T11:09:56.514Z,15.37
2023-04-12T11:10:56.520Z,15.41
2023-04-12T11:11:56.532Z,15.40
2023-04-12T11:12:56.484Z,15.44
2023-04-12T11:13:56.504Z,15.46
2023-04-12T11:14:56.471Z,15.37
2023-04-12T11:15:56.491Z,15.28
2023-04-12T11:16:56.482Z,15.20
2023-04-12T11:17:56.521Z,15.18
2023-04-12T11:18:56.776Z,15.16
2023-04-12T11:19:56.411Z,15.18
2023-04-12T11:20:56.403Z,15.20
2023-04-12T11:21:56.436Z,15.27
2023-04-12T11:22:56.382Z,15.33
2023-04-12T11:23:56.487Z,15.33
2023-04-12T11:24:56.378Z,15.18
2023-04-12T11:25:56.347Z,15.20
2023-04-12T11:26:56.343Z,15.28
2023-04-12T11:27:56.340Z,15.31
2023-04-12T11:28:56.621Z,15.25
2023-04-12T11:29:56.318Z,15.19
2023-04-12T11:30:56.345Z,15.18
2023-04-12T11:31:56.395Z,15.18
2023-04-12T11:32:56.312Z,15.23
2023-04-12T11:33:56.265Z,15.23
2023-04-12T11:34:56.266Z,15.48
2023-04-12T11:35:56.250Z,15.38
2023-04-12T11:36:56.239Z,15.49
2023-04-12T11:37:56.225Z,15.56
2023-04-12T11:38:56.386Z,15.55
2023-04-12T11:39:56.223Z,15.60
2023-04-12T11:40:56.197Z,15.56
2023-04-12T11:41:56.184Z,15.64
2023-04-12T11:42:56.178Z,15.56
2023-04-12T11:43:56.166Z,15.52
2023-04-12T11:44:59.832Z,15.44
2023-04-12T11:45:56.187Z,15.52
2023-04-12T11:46:56.141Z,15.48
2023-04-12T11:47:56.139Z,15.38
2023-04-12T11:48:56.371Z,15.31
2023-04-12T11:49:56.118Z,15.31
2023-04-12T11:51:07.836Z,15.23
2023-04-12T11:51:56.085Z,15.38
2023-04-12T11:52:56.076Z,15.41
2023-04-12T11:53:56.392Z,15.35
2023-04-12T11:54:56.057Z,15.51
2023-04-12T11:55:56.064Z,15.38
2023-04-12T11:56:56.036Z,15.44
2023-04-12T11:57:56.084Z,15.44
2023-04-12T11:58:56.019Z,15.28
2023-04-12T11:59:56.003Z,15.34
2023-04-12T12:00:55.997Z,15.43
2023-04-12T12:01:55.997Z,15.48
2023-04-12T12:03:06.600Z,15.43
2023-04-12T12:03:56.325Z,15.52
2023-04-12T12:04:56.227Z,15.67
2023-04-12T12:05:56.559Z,15.64
2023-04-12T12:06:56.189Z,15.74
2023-04-12T12:07:55.922Z,15.86
2023-04-12T12:08:55.920Z,15.85
2023-04-12T12:09:55.902Z,15.93
2023-04-12T12:11:06.401Z,15.93
2023-04-12T12:11:55.921Z,15.89
2023-04-12T12:12:55.874Z,15.77
2023-04-12T12:13:55.914Z,15.86
2023-04-12T12:14:55.855Z,15.88
2023-04-12T12:15:55.948Z,15.91
2023-04-12T12:16:55.837Z,15.91
2023-04-12T12:17:55.853Z,15.96
2023-04-12T12:18:55.814Z,15.98
2023-04-12T12:19:55.803Z,16.07
2023-04-12T12:20:55.826Z,16.08
2023-04-12T12:21:55.792Z,16.17
2023-04-12T12:22:55.777Z,16.18
2023-04-12T12:23:56.071Z,16.27
2023-04-12T12:24:55.763Z,16.26
2023-04-12T12:26:06.072Z,16.18
2023-04-12T12:26:55.736Z,16.10
2023-04-12T12:27:55.813Z,16.10
2023-04-12T12:28:55.718Z,16.16
2023-04-12T12:29:55.705Z,16.07
2023-04-12T12:30:55.724Z,16.14
2023-04-12T12:31:55.772Z,16.08
2023-04-12T12:32:55.728Z,16.16
2023-04-12T12:33:55.667Z,16.17
2023-04-12T12:34:55.688Z,16.22
2023-04-12T12:35:55.703Z,16.23
2023-04-12T12:36:55.640Z,16.27
2023-04-12T12:37:55.628Z,16.23
2023-04-12T12:38:55.972Z,16.25
2023-04-12T12:39:55.609Z,16.18
2023-04-12T12:40:55.601Z,16.32
2023-04-12T12:41:55.593Z,16.25
2023-04-12T12:42:55.588Z,16.26
2023-04-12T12:43:55.791Z,16.27
2023-04-12T12:44:55.561Z,16.23
2023-04-12T12:45:55.555Z,16.30
2023-04-12T12:47:06.296Z,16.41
2023-04-12T12:47:55.646Z,16.45
2023-04-12T12:48:55.528Z,16.47
2023-04-12T12:49:55.518Z,16.57
2023-04-12T12:50:55.508Z,16.59
2023-04-12T12:51:55.499Z,16.54
2023-04-12T12:52:55.486Z,16.66